Goshen, Virginia
Current Conditions -  °F | °C
As of 7:55 AM on Friday 24 Oct 2014 (Local Time) from KHSP Reporting Station
Clear Clear  
Wind Chill: 33°   Ceiling: Unl
Heat Index: 40°   Visibility: 10mi
Dew Point: 38°   Wind: 14mph
Humidity: 93%   Direction: 300°WNW
Pressure: 30.04"   Gusts: 18mph
Location:  37.99°N, 79.5°W
Report Text: KHSP 241155Z AUTO 30012G16KT 10SM CLR 05/04 A3004 RMK AO2 T00460035 10049 20041
Loading
Personal Weather Stations






























Interactive Weather Map
Tropical Storm Tracking
New forecast layout! Learn more

10-Day Weather Forecast

Advertisements
Track Severe Weather on mobile